createdAt,value
2022-11-19T00:00:37.093Z,49.00
2022-11-19T00:03:06.341Z,49.00
2022-11-19T00:05:40.665Z,50.50
2022-11-19T00:08:10.875Z,49.75
2022-11-19T00:10:40.714Z,55.00
2022-11-19T00:13:10.710Z,58.25
2022-11-19T00:15:40.004Z,65.50
2022-11-19T00:18:09.552Z,54.25
2022-11-19T00:20:38.810Z,49.25
2022-11-19T00:23:07.995Z,49.75
2022-11-19T00:25:37.235Z,59.25
2022-11-19T00:28:06.658Z,56.75
2022-11-19T00:30:51.147Z,50.75
2022-11-19T00:33:20.453Z,50.75
2022-11-19T00:35:50.885Z,54.75
2022-11-19T00:38:20.192Z,56.25
2022-11-19T00:40:49.474Z,62.25
2022-11-19T00:43:36.903Z,60.25
2022-11-19T00:46:06.274Z,56.00
2022-11-19T00:48:35.636Z,64.25
2022-11-19T00:51:05.120Z,63.25
2022-11-19T00:53:34.425Z,61.50
2022-11-19T00:56:05.406Z,61.75
2022-11-19T00:58:36.065Z,58.50
2022-11-19T01:01:06.182Z,53.75
2022-11-19T01:03:36.512Z,56.50
2022-11-19T01:06:06.510Z,69.25
2022-11-19T01:08:35.856Z,66.00
2022-11-19T01:11:07.991Z,64.50
2022-11-19T01:13:37.821Z,67.50
2022-11-19T01:16:10.207Z,63.00
2022-11-19T01:18:41.509Z,60.00
2022-11-19T01:21:12.369Z,60.00
2022-11-19T01:23:42.871Z,54.50
2022-11-19T01:26:12.390Z,62.00
2022-11-19T01:28:42.048Z,59.75
2022-11-19T01:31:16.013Z,59.25
2022-11-19T01:33:46.893Z,54.75
2022-11-19T01:36:20.746Z,53.75
2022-11-19T01:38:53.089Z,57.50
2022-11-19T01:41:24.335Z,70.25
2022-11-19T01:43:56.158Z,66.50
2022-11-19T01:46:27.007Z,72.75
2022-11-19T01:49:03.563Z,61.50
2022-11-19T01:51:33.651Z,63.50
2022-11-19T01:54:11.356Z,64.25
2022-11-19T01:56:41.288Z,66.50
2022-11-19T01:59:13.391Z,66.50
2022-11-19T02:01:43.800Z,65.50
2022-11-19T02:04:13.604Z,61.75
2022-11-19T02:06:43.542Z,60.50
2022-11-19T02:09:13.753Z,66.50
2022-11-19T02:12:01.382Z,67.00
2022-11-19T02:14:42.528Z,60.50
2022-11-19T02:17:19.749Z,79.75
2022-11-19T02:19:55.174Z,70.25
2022-11-19T02:22:36.744Z,75.75
2022-11-19T02:25:35.214Z,76.00
2022-11-19T02:28:24.129Z,78.50
2022-11-19T02:30:54.988Z,78.25
2022-11-19T02:33:30.486Z,81.75
2022-11-19T02:36:11.699Z,75.00
2022-11-19T02:38:43.624Z,76.00
2022-11-19T02:41:36.622Z,79.00
2022-11-19T02:44:36.415Z,76.00
2022-11-19T02:47:08.234Z,74.00
2022-11-19T02:49:38.953Z,77.50
2022-11-19T02:52:09.761Z,79.00
2022-11-19T02:54:39.152Z,76.50
2022-11-19T02:57:08.562Z,76.50
2022-11-19T03:00:08.733Z,80.25
2022-11-19T03:03:00.052Z,78.00
2022-11-19T03:05:31.568Z,76.75
2022-11-19T03:08:01.512Z,77.25
2022-11-19T03:10:35.146Z,77.25
2022-11-19T03:13:35.166Z,78.00
2022-11-19T03:16:23.907Z,80.50
2022-11-19T03:18:57.149Z,80.00
2022-11-19T03:21:32.212Z,78.75
2022-11-19T03:24:13.960Z,86.25
2022-11-19T03:26:53.416Z,81.75
2022-11-19T03:29:24.582Z,76.25
2022-11-19T03:31:58.142Z,78.00
2022-11-19T03:34:30.867Z,76.75
2022-11-19T03:37:02.826Z,84.00
2022-11-19T03:39:33.801Z,73.25
2022-11-19T03:42:07.080Z,80.50
2022-11-19T03:44:49.948Z,74.25
2022-11-19T03:47:25.233Z,76.75
2022-11-19T03:50:00.096Z,78.00
2022-11-19T03:52:30.307Z,81.00
2022-11-19T03:54:59.777Z,76.00
2022-11-19T03:57:29.172Z,85.50
2022-11-19T03:59:59.285Z,78.00
2022-11-19T04:02:29.501Z,76.75
2022-11-19T04:04:59.292Z,75.50
2022-11-19T04:07:31.195Z,77.00
2022-11-19T04:10:00.605Z,85.50
2022-11-19T04:12:30.007Z,81.25
2022-11-19T04:15:00.338Z,78.25
2022-11-19T04:17:29.776Z,77.50
2022-11-19T04:19:59.116Z,84.25
2022-11-19T04:22:38.181Z,72.25
2022-11-19T04:25:09.115Z,79.00
2022-11-19T04:27:38.884Z,79.50
2022-11-19T04:30:09.404Z,79.50
2022-11-19T04:32:38.781Z,78.50
2022-11-19T04:35:09.610Z,77.75
2022-11-19T04:37:39.631Z,79.50
2022-11-19T04:40:09.619Z,80.75
2022-11-19T04:42:39.113Z,81.25
2022-11-19T04:45:09.533Z,78.25
2022-11-19T04:47:39.290Z,86.50
2022-11-19T04:50:09.306Z,86.50
2022-11-19T04:52:41.142Z,75.75
2022-11-19T04:55:12.275Z,76.50
2022-11-19T04:57:42.424Z,80.00
2022-11-19T05:00:13.299Z,78.00
2022-11-19T05:02:43.471Z,78.25
2022-11-19T05:05:13.279Z,79.75
2022-11-19T05:07:42.901Z,77.50
2022-11-19T05:10:12.560Z,85.75
2022-11-19T05:12:42.316Z,81.50
2022-11-19T05:15:12.260Z,84.50
2022-11-19T05:17:41.927Z,77.75
2022-11-19T05:20:11.813Z,92.50
2022-11-19T05:22:41.538Z,86.25
2022-11-19T05:25:11.264Z,81.50
2022-11-19T05:27:40.912Z,84.25
2022-11-19T05:30:11.141Z,85.75
2022-11-19T05:32:42.093Z,81.00
2022-11-19T05:35:12.040Z,84.00
2022-11-19T05:37:42.052Z,80.25
2022-11-19T05:40:11.893Z,78.75
2022-11-19T05:42:42.512Z,83.25
2022-11-19T05:45:13.424Z,80.75
2022-11-19T05:47:47.373Z,78.00
2022-11-19T05:50:18.309Z,89.25
2022-11-19T05:52:52.400Z,84.50
2022-11-19T05:55:22.235Z,92.50
2022-11-19T05:57:52.009Z,83.25
2022-11-19T06:00:21.836Z,82.25
2022-11-19T06:02:51.518Z,84.00
2022-11-19T06:05:22.106Z,81.75
2022-11-19T06:07:51.753Z,83.75
2022-11-19T06:10:21.338Z,80.25
2022-11-19T06:12:51.133Z,78.25
2022-11-19T06:15:22.753Z,79.25
2022-11-19T06:17:52.569Z,77.00
2022-11-19T06:20:22.230Z,80.75
2022-11-19T06:22:53.052Z,79.00
2022-11-19T06:25:22.747Z,88.00
2022-11-19T06:27:52.459Z,85.00
2022-11-19T06:30:23.151Z,77.50
2022-11-19T06:32:52.784Z,83.50
2022-11-19T06:35:22.468Z,81.75
2022-11-19T06:37:52.251Z,86.25
2022-11-19T06:40:22.065Z,90.00
2022-11-19T06:42:52.061Z,78.25
2022-11-19T06:45:21.734Z,78.50
2022-11-19T06:47:51.409Z,81.50
2022-11-19T06:50:21.026Z,102.50
2022-11-19T06:52:50.707Z,92.25
2022-11-19T06:55:20.570Z,89.50
2022-11-19T06:57:50.312Z,82.50
2022-11-19T07:00:20.111Z,90.25
2022-11-19T07:02:49.851Z,78.75
2022-11-19T07:05:19.509Z,95.25
2022-11-19T07:07:49.235Z,83.50
2022-11-19T07:10:18.844Z,85.75
2022-11-19T07:12:48.623Z,88.25
2022-11-19T07:15:18.230Z,89.50
2022-11-19T07:17:47.929Z,79.00
2022-11-19T07:20:18.104Z,87.00
2022-11-19T07:22:48.841Z,86.25
2022-11-19T07:25:18.476Z,90.00
2022-11-19T07:27:48.723Z,85.25
2022-11-19T07:30:18.647Z,95.25
2022-11-19T07:32:48.231Z,85.00
2022-11-19T07:35:17.930Z,98.75
2022-11-19T07:37:47.532Z,93.25
2022-11-19T07:40:18.198Z,99.25
2022-11-19T07:42:54.687Z,96.50
2022-11-19T07:45:24.675Z,104.00
2022-11-19T07:47:55.341Z,93.00
2022-11-19T07:50:25.093Z,101.00
2022-11-19T07:52:55.164Z,94.00
2022-11-19T07:55:24.932Z,90.25
2022-11-19T07:57:57.493Z,92.25
2022-11-19T08:00:27.451Z,94.25
2022-11-19T08:02:57.148Z,108.00
2022-11-19T08:05:26.820Z,98.25
2022-11-19T08:07:56.717Z,100.50
2022-11-19T08:10:31.560Z,98.75
2022-11-19T08:13:04.999Z,103.50
2022-11-19T08:15:35.801Z,88.75
2022-11-19T08:18:14.563Z,91.75
2022-11-19T08:20:50.094Z,97.00
2022-11-19T08:23:19.764Z,98.00
2022-11-19T08:25:49.715Z,101.25
2022-11-19T08:28:19.358Z,93.00
2022-11-19T08:30:49.055Z,89.00
2022-11-19T08:33:18.705Z,91.50
2022-11-19T08:35:48.527Z,78.50
2022-11-19T08:38:18.186Z,77.50
2022-11-19T08:40:52.431Z,75.00
2022-11-19T08:43:22.288Z,73.00
2022-11-19T08:45:55.657Z,75.00
2022-11-19T08:48:25.118Z,72.50
2022-11-19T08:50:55.954Z,72.50
2022-11-19T08:53:25.787Z,70.50
2022-11-19T08:55:55.330Z,71.50
2022-11-19T08:58:25.034Z,66.50
2022-11-19T09:00:55.538Z,66.75
2022-11-19T09:03:26.609Z,71.75
2022-11-19T09:06:02.890Z,66.50
2022-11-19T09:08:32.609Z,63.00
2022-11-19T09:11:02.065Z,65.25
2022-11-19T09:13:31.430Z,69.00
2022-11-19T09:16:00.858Z,61.50
2022-11-19T09:18:30.391Z,66.50
2022-11-19T09:21:00.074Z,66.50
2022-11-19T09:23:29.566Z,61.25
2022-11-19T09:26:06.828Z,63.75
2022-11-19T09:28:37.319Z,64.25
2022-11-19T09:31:11.135Z,65.75
2022-11-19T09:33:43.490Z,61.50
2022-11-19T09:36:14.501Z,79.75
2022-11-19T09:38:44.556Z,65.00
2022-11-19T09:41:21.219Z,70.00
2022-11-19T09:44:08.986Z,72.75
2022-11-19T09:46:43.693Z,69.75
2022-11-19T09:49:17.492Z,74.75
2022-11-19T09:51:53.716Z,69.75
2022-11-19T09:54:24.423Z,75.00
2022-11-19T09:56:58.053Z,66.75
2022-11-19T09:59:40.185Z,70.25
2022-11-19T10:02:20.109Z,70.25
2022-11-19T10:04:51.705Z,73.50
2022-11-19T10:07:30.564Z,68.00
2022-11-19T10:10:12.244Z,70.75
2022-11-19T10:13:14.208Z,66.75
2022-11-19T10:15:43.747Z,68.50
2022-11-19T10:18:28.570Z,72.00
2022-11-19T10:21:06.300Z,65.00
2022-11-19T10:24:02.976Z,66.00
2022-11-19T10:26:37.872Z,58.50
2022-11-19T10:29:16.486Z,61.50
2022-11-19T10:31:50.432Z,54.25
2022-11-19T10:34:31.272Z,59.50
2022-11-19T10:37:15.453Z,61.50
2022-11-19T10:39:50.945Z,55.75
2022-11-19T10:42:20.644Z,57.75
2022-11-19T10:44:59.769Z,63.00
2022-11-19T10:47:37.274Z,64.00
2022-11-19T10:50:11.101Z,62.00
2022-11-19T10:53:01.415Z,56.50
2022-11-19T10:55:34.096Z,58.50
2022-11-19T10:58:18.763Z,57.50
2022-11-19T11:00:48.981Z,56.50
2022-11-19T11:03:29.922Z,54.25
2022-11-19T11:06:06.669Z,50.75
2022-11-19T11:08:49.050Z,48.50
2022-11-19T11:11:25.071Z,47.50
2022-11-19T11:14:13.360Z,48.50
2022-11-19T11:16:47.992Z,48.25
2022-11-19T11:19:22.020Z,54.00
2022-11-19T11:21:57.245Z,57.50
2022-11-19T11:24:38.233Z,48.75
2022-11-19T11:27:21.736Z,49.00
2022-11-19T11:29:51.625Z,44.50
2022-11-19T11:32:32.856Z,46.25
2022-11-19T11:35:07.536Z,47.75
2022-11-19T11:37:40.721Z,46.75
2022-11-19T11:40:20.284Z,52.00
2022-11-19T11:42:49.950Z,41.25
2022-11-19T11:45:24.572Z,48.75
2022-11-19T11:47:54.133Z,48.50
2022-11-19T11:50:25.841Z,48.25
2022-11-19T11:52:56.251Z,48.75
2022-11-19T11:55:26.085Z,55.75
2022-11-19T11:57:59.506Z,49.25
2022-11-19T12:00:41.266Z,53.25
2022-11-19T12:03:15.268Z,51.75
2022-11-19T12:05:47.814Z,56.00
2022-11-19T12:08:36.756Z,56.25
2022-11-19T12:11:06.764Z,55.75
2022-11-19T12:13:55.124Z,63.75
2022-11-19T12:16:25.113Z,61.25
2022-11-19T12:19:00.720Z,65.00
2022-11-19T12:21:49.038Z,58.00
2022-11-19T12:24:25.653Z,55.25
2022-11-19T12:27:06.153Z,64.00
2022-11-19T12:29:44.533Z,72.25
2022-11-19T12:32:52.222Z,70.50
2022-11-19T12:35:34.497Z,64.75
2022-11-19T12:38:10.848Z,62.00
2022-11-19T12:40:56.250Z,58.50
2022-11-19T12:43:44.482Z,63.00
2022-11-19T12:46:55.113Z,58.75
2022-11-19T12:49:43.640Z,61.00
2022-11-19T12:52:30.260Z,61.00
2022-11-19T12:55:00.614Z,58.75
2022-11-19T12:57:30.505Z,54.75
2022-11-19T13:00:13.940Z,52.75
2022-11-19T13:02:55.254Z,57.25
2022-11-19T13:05:31.221Z,57.50
2022-11-19T13:08:21.807Z,56.50
2022-11-19T13:10:58.027Z,60.50
2022-11-19T13:13:30.590Z,58.50
2022-11-19T13:16:01.161Z,58.00
2022-11-19T13:18:33.228Z,51.25
2022-11-19T13:21:06.144Z,55.25
2022-11-19T13:23:40.353Z,52.00
2022-11-19T13:26:33.911Z,58.75
2022-11-19T13:29:27.342Z,56.25
2022-11-19T13:31:58.158Z,57.50
2022-11-19T13:34:52.040Z,60.50
2022-11-19T13:37:29.704Z,51.25
2022-11-19T13:40:07.176Z,55.75
2022-11-19T13:43:25.109Z,58.50
2022-11-19T13:45:48.800Z,55.50
2022-11-19T13:48:31.784Z,53.00
2022-11-19T13:51:06.110Z,52.25
2022-11-19T13:53:39.957Z,53.75
2022-11-19T13:56:15.382Z,52.50
2022-11-19T13:58:51.140Z,59.00
2022-11-19T14:01:24.248Z,49.75
2022-11-19T14:03:58.129Z,56.00
2022-11-19T14:06:45.862Z,57.75
2022-11-19T14:09:17.925Z,50.50
2022-11-19T14:11:51.402Z,55.00
2022-11-19T14:14:47.714Z,54.75
2022-11-19T14:17:42.761Z,52.25
2022-11-19T14:20:48.566Z,55.25
2022-11-19T14:23:59.693Z,56.50
2022-11-19T14:26:59.215Z,55.50
2022-11-19T14:29:35.969Z,54.00
2022-11-19T14:32:09.215Z,57.00
2022-11-19T14:34:41.585Z,60.50
2022-11-19T14:37:21.281Z,56.50
2022-11-19T14:40:02.012Z,59.50
2022-11-19T14:42:31.694Z,59.00
2022-11-19T14:45:06.956Z,55.00
2022-11-19T14:47:37.467Z,60.00
2022-11-19T14:50:10.254Z,63.00
2022-11-19T14:52:51.811Z,56.00
2022-11-19T14:55:26.020Z,61.50
2022-11-19T14:58:02.176Z,62.25
2022-11-19T15:00:39.162Z,62.25
2022-11-19T15:03:16.259Z,62.25
2022-11-19T15:05:48.453Z,60.50
2022-11-19T15:08:21.380Z,60.75
2022-11-19T15:11:11.040Z,63.75
2022-11-19T15:13:44.152Z,57.25
2022-11-19T15:16:19.471Z,68.25
2022-11-19T15:18:53.311Z,66.50
2022-11-19T15:21:30.321Z,64.25
2022-11-19T15:24:14.649Z,61.50
2022-11-19T15:27:01.547Z,65.50
2022-11-19T15:29:47.426Z,68.25
2022-11-19T15:32:45.497Z,60.25
2022-11-19T15:35:33.566Z,63.75
2022-11-19T15:38:31.154Z,64.00
2022-11-19T15:41:03.528Z,63.75
2022-11-19T15:43:38.134Z,59.75
2022-11-19T15:46:30.171Z,65.50
2022-11-19T15:49:13.350Z,62.00
2022-11-19T15:52:06.662Z,60.75
2022-11-19T15:54:37.681Z,58.25
2022-11-19T15:57:28.428Z,60.25
2022-11-19T16:00:03.290Z,62.50
2022-11-19T16:02:37.022Z,58.00
2022-11-19T16:05:09.401Z,66.00
2022-11-19T16:07:39.515Z,61.00
2022-11-19T16:10:09.460Z,59.00
2022-11-19T16:12:57.236Z,62.25
2022-11-19T16:15:46.883Z,62.00
2022-11-19T16:18:17.737Z,64.00
2022-11-19T16:20:53.585Z,63.50
2022-11-19T16:23:24.659Z,66.00
2022-11-19T16:25:54.709Z,60.75
2022-11-19T16:28:29.784Z,65.75
2022-11-19T16:31:03.857Z,67.00
2022-11-19T16:33:34.252Z,64.00
2022-11-19T16:36:20.680Z,64.00
2022-11-19T16:38:54.046Z,65.75
2022-11-19T16:41:43.467Z,66.75
2022-11-19T16:44:20.764Z,62.00
2022-11-19T16:46:50.373Z,64.25
2022-11-19T16:49:25.909Z,62.50
2022-11-19T16:51:55.777Z,64.00
2022-11-19T16:54:43.170Z,66.00
2022-11-19T16:57:13.158Z,62.25
2022-11-19T16:59:44.062Z,67.50
2022-11-19T17:02:17.551Z,61.00
2022-11-19T17:04:49.213Z,65.25
2022-11-19T17:07:26.547Z,62.50
2022-11-19T17:10:11.238Z,64.75
2022-11-19T17:12:51.637Z,70.75
2022-11-19T17:15:39.780Z,62.50
2022-11-19T17:18:12.038Z,65.25
2022-11-19T17:20:41.348Z,65.00
2022-11-19T17:23:13.152Z,69.25
2022-11-19T17:25:53.083Z,64.75
2022-11-19T17:28:37.736Z,61.25
2022-11-19T17:31:08.879Z,61.75
2022-11-19T17:33:38.394Z,65.50
2022-11-19T17:36:14.493Z,63.50
2022-11-19T17:38:44.036Z,68.00
2022-11-19T17:41:17.612Z,67.00
2022-11-19T17:44:05.057Z,65.75
2022-11-19T17:46:34.328Z,64.00
2022-11-19T17:49:03.660Z,61.75
2022-11-19T17:51:34.393Z,62.50
2022-11-19T17:54:03.912Z,66.00
2022-11-19T17:56:33.188Z,61.00
2022-11-19T17:59:02.936Z,65.75
2022-11-19T18:01:32.513Z,65.75
2022-11-19T18:04:02.018Z,67.25
2022-11-19T18:06:31.272Z,66.25
2022-11-19T18:09:00.527Z,63.25
2022-11-19T18:11:29.808Z,61.25
2022-11-19T18:14:02.996Z,66.25
2022-11-19T18:16:38.839Z,62.50
2022-11-19T18:19:12.108Z,62.50
2022-11-19T18:21:43.026Z,63.25
2022-11-19T18:24:13.619Z,70.00
2022-11-19T18:26:43.013Z,63.00
2022-11-19T18:29:12.419Z,62.50
2022-11-19T18:31:45.854Z,63.00
2022-11-19T18:34:26.425Z,65.75
2022-11-19T18:36:56.296Z,64.00
2022-11-19T18:39:25.567Z,66.75
2022-11-19T18:41:54.994Z,64.25
2022-11-19T18:44:36.625Z,62.25
2022-11-19T18:47:08.982Z,63.75
2022-11-19T18:49:39.084Z,65.00
2022-11-19T18:52:16.662Z,63.00
2022-11-19T18:54:46.258Z,63.00
2022-11-19T18:57:15.721Z,62.00
2022-11-19T18:59:45.021Z,63.75
2022-11-19T19:02:14.408Z,61.50
2022-11-19T19:04:46.025Z,58.25
2022-11-19T19:07:18.310Z,62.00
2022-11-19T19:09:47.745Z,61.50
2022-11-19T19:12:19.998Z,65.50
2022-11-19T19:14:50.703Z,66.50
2022-11-19T19:17:20.491Z,69.00
2022-11-19T19:19:51.145Z,59.75
2022-11-19T19:22:21.015Z,62.50
2022-11-19T19:24:56.709Z,65.75
2022-11-19T19:27:29.559Z,66.25
2022-11-19T19:29:59.605Z,64.25
2022-11-19T19:32:29.450Z,61.75
2022-11-19T19:34:58.665Z,63.50
2022-11-19T19:37:27.994Z,60.50
2022-11-19T19:39:57.278Z,64.50
2022-11-19T19:42:26.531Z,63.25
2022-11-19T19:44:55.842Z,61.75
2022-11-19T19:47:25.055Z,66.50
2022-11-19T19:49:54.471Z,62.75
2022-11-19T19:52:23.727Z,65.50
2022-11-19T19:54:53.108Z,61.00
2022-11-19T19:57:22.384Z,65.25
2022-11-19T19:59:51.575Z,62.75
2022-11-19T20:02:20.875Z,56.00
2022-11-19T20:04:50.400Z,64.00
2022-11-19T20:07:19.718Z,60.75
2022-11-19T20:09:49.258Z,61.00
2022-11-19T20:12:19.456Z,61.25
2022-11-19T20:14:49.904Z,63.50
2022-11-19T20:17:19.182Z,63.25
2022-11-19T20:19:48.419Z,67.00
2022-11-19T20:22:17.659Z,62.00
2022-11-19T20:24:46.993Z,66.00
2022-11-19T20:27:16.238Z,64.00
2022-11-19T20:29:45.605Z,64.50
2022-11-19T20:32:14.937Z,60.50
2022-11-19T20:34:44.158Z,59.25
2022-11-19T20:37:13.361Z,60.50
2022-11-19T20:39:42.613Z,65.75
2022-11-19T20:42:29.683Z,56.00
2022-11-19T20:44:59.504Z,64.00
2022-11-19T20:47:28.814Z,66.00
2022-11-19T20:49:58.129Z,63.75
2022-11-19T20:52:27.428Z,60.00
2022-11-19T20:54:56.762Z,61.00
2022-11-19T20:57:25.987Z,66.75
2022-11-19T20:59:55.242Z,65.25
2022-11-19T21:02:24.469Z,64.50
2022-11-19T21:04:53.708Z,67.50
2022-11-19T21:07:23.220Z,63.25
2022-11-19T21:09:52.517Z,64.75
2022-11-19T21:12:21.756Z,66.50
2022-11-19T21:14:50.990Z,62.25
2022-11-19T21:17:20.227Z,64.00
2022-11-19T21:19:49.958Z,65.25
2022-11-19T21:22:19.232Z,61.25
2022-11-19T21:24:48.494Z,62.00
2022-11-19T21:27:18.210Z,62.50
2022-11-19T21:29:47.480Z,56.00
2022-11-19T21:32:17.256Z,59.75
2022-11-19T21:34:46.458Z,59.50
2022-11-19T21:37:15.772Z,61.00
2022-11-19T21:39:45.054Z,59.75
2022-11-19T21:42:14.321Z,58.00
2022-11-19T21:44:44.160Z,56.50
2022-11-19T21:47:13.459Z,58.75
2022-11-19T21:49:42.770Z,62.25
2022-11-19T21:52:12.034Z,62.50
2022-11-19T21:54:41.375Z,60.00
2022-11-19T21:57:10.608Z,62.25
2022-11-19T21:59:39.822Z,62.25
2022-11-19T22:02:10.303Z,61.25
2022-11-19T22:04:39.538Z,54.00
2022-11-19T22:07:08.950Z,61.00
2022-11-19T22:09:38.277Z,63.00
2022-11-19T22:12:07.617Z,61.75
2022-11-19T22:14:36.820Z,60.50
2022-11-19T22:17:06.080Z,58.25
2022-11-19T22:19:35.347Z,62.75
2022-11-19T22:22:05.259Z,60.25
2022-11-19T22:24:34.469Z,61.00
2022-11-19T22:27:03.679Z,60.25
2022-11-19T22:29:32.974Z,60.75
2022-11-19T22:32:02.272Z,60.50
2022-11-19T22:34:31.570Z,63.25
2022-11-19T22:37:00.862Z,58.50
2022-11-19T22:39:30.113Z,58.50
2022-11-19T22:41:59.358Z,61.25
2022-11-19T22:44:28.622Z,59.00
2022-11-19T22:46:59.878Z,57.25
2022-11-19T22:49:29.545Z,60.75
2022-11-19T22:51:58.815Z,58.25
2022-11-19T22:54:28.034Z,56.75
2022-11-19T22:56:57.267Z,59.50
2022-11-19T22:59:26.498Z,53.75
2022-11-19T23:01:55.719Z,54.75
2022-11-19T23:04:26.018Z,60.50
2022-11-19T23:06:55.353Z,61.00
2022-11-19T23:09:24.643Z,56.75
2022-11-19T23:12:12.199Z,54.75
2022-11-19T23:14:41.466Z,58.75
2022-11-19T23:17:10.810Z,56.00
2022-11-19T23:19:40.274Z,53.25
2022-11-19T23:22:09.885Z,60.00
2022-11-19T23:24:39.117Z,56.75
2022-11-19T23:27:08.392Z,58.50
2022-11-19T23:29:37.642Z,60.75
2022-11-19T23:32:06.982Z,57.25
2022-11-19T23:34:36.315Z,58.75
2022-11-19T23:37:05.558Z,60.75
2022-11-19T23:39:34.841Z,62.50
2022-11-19T23:42:04.045Z,62.00
2022-11-19T23:44:33.587Z,57.50
2022-11-19T23:47:02.846Z,60.25
2022-11-19T23:49:32.169Z,57.75
2022-11-19T23:52:01.550Z,62.00
2022-11-19T23:54:30.826Z,55.75
2022-11-19T23:57:00.297Z,51.75
2022-11-19T23:59:29.815Z,54.25
